Albuquerque, NM

7:00 PM MDT on September 25, 2016 (GMT -0600)
UNM Area West | | Change Station

Elev 5133 ft 35.09 °N, 106.63 °W | Updated 11 minutes ago

Mostly Cloudy
Mostly Cloudy
70.4 °F
Feels Like 76 °F
N
4.0
Wind Variable Wind from ESE
Gusts 12.0 mph

Today
High -- | Low -- °F
--% Chance of Precip.
Yesterday
High -- | Low -- °F
Precip. -- in
Pressure 30.16 in
Visibility 10.0 miles
Clouds Few 8000 ft
Scattered Clouds 19000 ft
Mostly Cloudy 22000 ft
Heat Index 76 °F
Dew Point 37 °F
Humidity 29%
Rainfall 0.00 in
Snow Depth Not available.
6:57 AM 6:58 PM
Waning Crescent, 23% visible
METAR KABQ 260052Z 10016KT 10SM FEW080 SCT190 BKN220 21/02 A3032 RMK AO2 SLP213 T02060017
Pressure 30.16 in
Visibility 10.0 miles
Clouds Few 8000 ft
Scattered Clouds 19000 ft
Mostly Cloudy 22000 ft
Heat Index 76 °F
Dew Point 37 °F
Humidity 29%
Rainfall 0.00 in
Snow Depth Not available.
6:57 AM 6:58 PM
Waning Crescent, 23% visible
METAR KABQ 260052Z 10016KT 10SM FEW080 SCT190 BKN220 21/02 A3032 RMK AO2 SLP213 T02060017

10-Day Weather Forecast

Almanac

Astronomy

Sep. 25, 2016 Rise Set
Actual Time
Civil Twilight
Nautical Twilight
Astronomical Twilight
Moon
Length of Visible Light
Length of Day
Tomorrow will be .
, % of the Moon is Illuminated

Today's Extremes

State Highs State Lows

Community

WunderPhotos

Upload Photos

1,941,797 photos uploaded!

WunderBlog® & News

Nearby

Air Quality

  Air Quality AQ Index Pollutant
Not available.

Snow Depth

Station Depth Elevation

Earthquake Activity

City Distance Mag. Time & Date
Minimum magnitude displayed is 2.5.

Coastal Water Temperatures

Place Temperature

Stations

Nearby Weather Stations

Station Location Temp. Windchill Dew Point Humidity Wind Precip. Elev Updated Type
                   

Watches & Warnings

There are currently no watches in effect.